Etusivu
METAR-TAF:

METAR-TAF

Lentoasemat :

Kööpenhaminan lentoasema

Kööpenhamina, Tanska

Leveyspiiri: 55-37N, Pituuspiiri: 012-39E, korkeus merenpinnasta: 5 m

Tämänhetkinen sää

Tämä raportti tehtiin 26 minuuttia sitten, kello 23.20 UTC
Tuuli 14 kn idästä
Lämpötila 6°C
Kosteus 75%
Ilmanpaine 1025 hPa
Näkyvyys 10 km tai enemmän
Muutamia pilviä 2800 ft:n korkeudessa
Hajonneita pilviä 3000 ft:n korkeudessa

METAR: EKCH 202320Z 09014KT 9999 FEW028 BKN030 06/02 Q1025 NOSIG

Aika: 00:46 (23:46 UTC)

Sääennuste

Tämä raportti tehtiin 42 minuuttia sitten, kello 23.04 UTC
Ennuste voimassa 21. päivästä klo 00 UTC - 21. päivään klo 24 UTC
Tuuli 15 kn idästä
Näkyvyys 10 km tai enemmän
Hajonneita pilviä 3000 ft:n korkeudessa

TAF: EKCH 202304Z 2100/2124 09015KT 9999 BKN030

Säähavainnot ja -ennusteet yli 4000 lentoasemalta (METAR- ja TAF-raportit).

Käytössä olevat sääasemat on merkitty karttaan keltaisilla ja punaisilla pisteillä.

Aseta hiiri pisteen päälle nähdäksesi sääaseman nimen.

Klikkaa sitten nähdäksesi säähavainnot ja -ennusteet.

Kartan vaihtaminen: klikkaa mustalla rastilla varustettuja vihreitä pisteitä, niin voit zoomata sisään; viivalla varustettua vihreää pistettä, niin voit zoomata ulos tai vihreitä nuolia, niin pääset viereisille kartoille.


METAR-TAF: